createdAt,value
2022-10-26T00:01:22.648Z,100.00
2022-10-26T00:03:50.797Z,100.00
2022-10-26T00:06:21.190Z,100.00
2022-10-26T00:08:49.773Z,100.00
2022-10-26T00:11:19.437Z,100.00
2022-10-26T00:13:48.048Z,100.00
2022-10-26T00:16:20.279Z,100.00
2022-10-26T00:18:49.124Z,100.00
2022-10-26T00:21:17.469Z,100.00
2022-10-26T00:23:45.318Z,100.00
2022-10-26T00:26:13.351Z,100.00
2022-10-26T00:28:41.645Z,100.00
2022-10-26T00:31:14.327Z,100.00
2022-10-26T00:33:42.147Z,100.00
2022-10-26T00:36:14.554Z,100.00
2022-10-26T00:38:46.026Z,100.00
2022-10-26T00:41:16.545Z,100.00
2022-10-26T00:43:44.753Z,100.00
2022-10-26T00:46:18.372Z,100.00
2022-10-26T00:48:51.218Z,100.00
2022-10-26T00:51:25.802Z,100.00
2022-10-26T00:53:55.343Z,100.00
2022-10-26T00:56:24.026Z,100.00
2022-10-26T00:58:52.559Z,100.00
2022-10-26T01:01:20.614Z,100.00
2022-10-26T01:03:49.657Z,100.00
2022-10-26T01:06:19.578Z,100.00
2022-10-26T01:08:48.629Z,100.00
2022-10-26T01:11:16.614Z,100.00
2022-10-26T01:13:47.360Z,100.00
2022-10-26T01:16:53.878Z,100.00
2022-10-26T01:19:42.840Z,100.00
2022-10-26T01:22:17.395Z,100.00
2022-10-26T01:25:16.924Z,100.00
2022-10-26T01:27:48.699Z,100.00
2022-10-26T01:30:25.690Z,100.00
2022-10-26T01:33:06.055Z,100.00
2022-10-26T01:35:52.749Z,100.00
2022-10-26T01:38:38.515Z,100.00
2022-10-26T01:41:20.921Z,100.00
2022-10-26T01:44:13.979Z,100.00
2022-10-26T01:46:46.091Z,100.00
2022-10-26T01:49:17.157Z,100.00
2022-10-26T01:51:48.813Z,100.00
2022-10-26T01:54:17.327Z,100.00
2022-10-26T01:56:50.498Z,100.00
2022-10-26T01:59:43.201Z,100.00
2022-10-26T02:02:32.549Z,100.00
2022-10-26T02:05:10.388Z,100.00
2022-10-26T02:07:47.379Z,100.00
2022-10-26T02:10:30.910Z,100.00
2022-10-26T02:13:17.599Z,100.00
2022-10-26T02:15:58.479Z,100.00
2022-10-26T02:18:38.240Z,100.00
2022-10-26T02:21:15.156Z,100.00
2022-10-26T02:23:46.106Z,100.00
2022-10-26T02:26:16.496Z,100.00
2022-10-26T02:28:49.662Z,100.00
2022-10-26T02:31:19.814Z,100.00
2022-10-26T02:33:50.502Z,100.00
2022-10-26T02:36:25.689Z,100.00
2022-10-26T02:38:55.803Z,100.00
2022-10-26T02:41:25.969Z,100.00
2022-10-26T02:44:06.623Z,100.00
2022-10-26T02:46:34.749Z,100.00
2022-10-26T02:49:02.730Z,100.00
2022-10-26T02:51:41.237Z,100.00
2022-10-26T02:54:18.580Z,100.00
2022-10-26T02:56:56.480Z,100.00
2022-10-26T02:59:29.215Z,100.00
2022-10-26T03:01:57.952Z,100.00
2022-10-26T03:04:33.713Z,100.00
2022-10-26T03:07:02.358Z,100.00
2022-10-26T03:09:30.107Z,100.00
2022-10-26T03:11:57.814Z,100.00
2022-10-26T03:14:25.528Z,100.00
2022-10-26T03:16:53.272Z,100.00
2022-10-26T03:19:21.083Z,100.00
2022-10-26T03:21:49.024Z,100.00
2022-10-26T03:24:16.747Z,100.00
2022-10-26T03:26:44.561Z,100.00
2022-10-26T03:29:12.337Z,100.00
2022-10-26T03:31:40.319Z,100.00
2022-10-26T03:34:08.492Z,100.00
2022-10-26T03:36:36.490Z,100.00
2022-10-26T03:39:04.326Z,100.00
2022-10-26T03:41:32.160Z,100.00
2022-10-26T03:43:59.889Z,100.00
2022-10-26T03:46:27.924Z,100.00
2022-10-26T03:48:55.956Z,100.00
2022-10-26T03:51:23.804Z,100.00
2022-10-26T03:53:51.494Z,100.00
2022-10-26T03:56:19.231Z,100.00
2022-10-26T03:58:47.049Z,100.00
2022-10-26T04:01:15.268Z,100.00
2022-10-26T04:03:43.103Z,100.00
2022-10-26T04:06:10.895Z,100.00
2022-10-26T04:08:38.891Z,100.00
2022-10-26T04:11:06.808Z,100.00
2022-10-26T04:13:35.022Z,100.00
2022-10-26T04:16:02.937Z,100.00
2022-10-26T04:18:30.706Z,100.00
2022-10-26T04:21:02.244Z,100.00
2022-10-26T04:23:30.435Z,100.00
2022-10-26T04:25:58.172Z,100.00
2022-10-26T04:28:26.097Z,100.00
2022-10-26T04:30:53.950Z,100.00
2022-10-26T04:33:21.987Z,100.00
2022-10-26T04:35:49.935Z,100.00
2022-10-26T04:38:17.619Z,100.00
2022-10-26T04:40:50.974Z,100.00
2022-10-26T04:43:19.877Z,100.00
2022-10-26T04:45:48.980Z,100.00
2022-10-26T04:48:17.513Z,100.00
2022-10-26T04:50:46.070Z,100.00
2022-10-26T04:53:14.194Z,100.00
2022-10-26T04:55:43.076Z,100.00
2022-10-26T04:58:10.973Z,100.00
2022-10-26T05:00:38.874Z,100.00
2022-10-26T05:03:07.715Z,100.00
2022-10-26T05:05:37.104Z,100.00
2022-10-26T05:08:05.905Z,100.00
2022-10-26T05:10:34.110Z,100.00
2022-10-26T05:13:03.100Z,100.00
2022-10-26T05:15:31.159Z,100.00
2022-10-26T05:18:05.524Z,100.00
2022-10-26T05:20:35.371Z,100.00
2022-10-26T05:23:06.081Z,100.00
2022-10-26T05:25:37.782Z,100.00
2022-10-26T05:28:09.539Z,100.00
2022-10-26T05:30:37.436Z,100.00
2022-10-26T05:33:05.936Z,100.00
2022-10-26T05:35:33.716Z,100.00
2022-10-26T05:38:10.568Z,100.00
2022-10-26T05:40:38.482Z,100.00
2022-10-26T05:43:06.448Z,100.00
2022-10-26T05:45:34.686Z,100.00
2022-10-26T05:48:02.985Z,100.00
2022-10-26T05:50:31.706Z,100.00
2022-10-26T05:53:03.382Z,100.00
2022-10-26T05:55:31.874Z,100.00
2022-10-26T05:58:00.065Z,100.00
2022-10-26T06:00:29.427Z,100.00
2022-10-26T06:03:09.211Z,100.00
2022-10-26T06:05:58.201Z,100.00
2022-10-26T06:08:28.688Z,100.00
2022-10-26T06:10:59.487Z,100.00
2022-10-26T06:13:27.764Z,100.00
2022-10-26T06:16:07.871Z,100.00
2022-10-26T06:18:52.490Z,100.00
2022-10-26T06:21:54.192Z,100.00
2022-10-26T06:24:36.663Z,100.00
2022-10-26T06:27:26.045Z,100.00
2022-10-26T06:30:03.427Z,100.00
2022-10-26T06:32:32.152Z,100.00
2022-10-26T06:35:27.509Z,100.00
2022-10-26T06:38:00.342Z,100.00
2022-10-26T06:40:33.110Z,100.00
2022-10-26T06:43:01.624Z,100.00
2022-10-26T06:45:30.565Z,100.00
2022-10-26T06:48:14.096Z,100.00
2022-10-26T06:50:52.956Z,100.00
2022-10-26T06:53:33.797Z,100.00
2022-10-26T06:56:02.339Z,100.00
2022-10-26T06:58:36.449Z,100.00
2022-10-26T07:01:04.836Z,100.00
2022-10-26T07:03:32.958Z,100.00
2022-10-26T07:06:00.966Z,100.00
2022-10-26T07:08:32.104Z,100.00
2022-10-26T07:11:00.037Z,100.00
2022-10-26T07:13:28.235Z,100.00
2022-10-26T07:15:56.220Z,100.00
2022-10-26T07:18:24.115Z,100.00
2022-10-26T07:20:52.135Z,100.00
2022-10-26T07:23:20.145Z,100.00
2022-10-26T07:25:48.120Z,100.00
2022-10-26T07:28:16.029Z,100.00
2022-10-26T07:30:43.901Z,100.00
2022-10-26T07:33:14.019Z,100.00
2022-10-26T07:35:42.060Z,100.00
2022-10-26T07:38:10.755Z,100.00
2022-10-26T07:40:38.602Z,100.00
2022-10-26T07:43:06.797Z,100.00
2022-10-26T07:45:35.342Z,100.00
2022-10-26T07:48:03.463Z,100.00
2022-10-26T07:50:31.434Z,100.00
2022-10-26T07:52:59.851Z,100.00
2022-10-26T07:55:28.302Z,100.00
2022-10-26T07:57:56.751Z,100.00
2022-10-26T08:00:25.795Z,100.00
2022-10-26T08:02:54.218Z,100.00
2022-10-26T08:05:22.499Z,100.00
2022-10-26T08:07:50.585Z,100.00
2022-10-26T08:10:19.487Z,100.00
2022-10-26T08:12:47.523Z,100.00
2022-10-26T08:15:15.582Z,100.00
2022-10-26T08:17:44.262Z,100.00
2022-10-26T08:20:12.557Z,100.00
2022-10-26T08:22:40.659Z,100.00
2022-10-26T08:25:09.844Z,100.00
2022-10-26T08:27:38.278Z,100.00
2022-10-26T08:30:07.431Z,100.00
2022-10-26T08:32:36.283Z,100.00
2022-10-26T08:35:04.783Z,100.00
2022-10-26T08:37:32.674Z,100.00
2022-10-26T08:40:02.940Z,100.00
2022-10-26T08:42:40.911Z,100.00
2022-10-26T08:45:31.736Z,100.00
2022-10-26T08:48:05.015Z,100.00
2022-10-26T08:50:42.942Z,100.00
2022-10-26T08:53:20.730Z,100.00
2022-10-26T08:56:02.228Z,100.00
2022-10-26T08:58:45.688Z,100.00
2022-10-26T09:01:13.966Z,100.00
2022-10-26T09:03:41.969Z,100.00
2022-10-26T09:06:40.426Z,100.00
2022-10-26T09:09:43.819Z,100.00
2022-10-26T09:12:11.713Z,100.00
2022-10-26T09:15:11.176Z,100.00
2022-10-26T09:17:53.122Z,100.00
2022-10-26T09:20:42.411Z,100.00
2022-10-26T09:23:42.278Z,100.00
2022-10-26T09:26:19.219Z,100.00
2022-10-26T09:28:48.603Z,100.00
2022-10-26T09:31:18.080Z,100.00
2022-10-26T09:33:47.070Z,100.00
2022-10-26T09:36:22.454Z,100.00
2022-10-26T09:39:24.794Z,100.00
2022-10-26T09:42:01.240Z,100.00
2022-10-26T09:44:43.686Z,100.00
2022-10-26T09:47:52.883Z,100.00
2022-10-26T09:50:28.609Z,100.00
2022-10-26T09:52:56.560Z,100.00
2022-10-26T09:55:24.318Z,100.00
2022-10-26T09:57:56.357Z,100.00
2022-10-26T10:00:26.053Z,100.00
2022-10-26T10:02:55.900Z,100.00
2022-10-26T10:05:50.221Z,100.00
2022-10-26T10:08:24.517Z,100.00
2022-10-26T10:10:58.165Z,100.00
2022-10-26T10:13:29.356Z,100.00
2022-10-26T10:16:23.165Z,100.00
2022-10-26T10:18:56.902Z,100.00
2022-10-26T10:21:44.706Z,100.00
2022-10-26T10:24:24.635Z,100.00
2022-10-26T10:26:58.410Z,100.00
2022-10-26T10:29:28.250Z,100.00
2022-10-26T10:32:01.207Z,100.00
2022-10-26T10:34:33.212Z,100.00
2022-10-26T10:37:02.654Z,100.00
2022-10-26T10:39:41.879Z,100.00
2022-10-26T10:42:21.943Z,100.00
2022-10-26T10:44:55.331Z,100.00
2022-10-26T10:47:27.224Z,100.00
2022-10-26T10:50:07.391Z,100.00
2022-10-26T10:52:36.365Z,100.00
2022-10-26T10:55:15.693Z,100.00
2022-10-26T10:57:56.548Z,100.00
2022-10-26T11:00:25.592Z,100.00
2022-10-26T11:03:08.754Z,100.00
2022-10-26T11:06:00.476Z,100.00
2022-10-26T11:08:31.140Z,100.00
2022-10-26T11:11:02.166Z,100.00
2022-10-26T11:13:37.491Z,100.00
2022-10-26T11:16:15.455Z,100.00
2022-10-26T11:18:49.797Z,100.00
2022-10-26T11:21:30.210Z,100.00
2022-10-26T11:24:18.207Z,100.00
2022-10-26T11:26:53.959Z,100.00
2022-10-26T11:29:21.962Z,100.00
2022-10-26T11:32:05.780Z,100.00
2022-10-26T11:34:41.984Z,100.00
2022-10-26T11:37:25.789Z,100.00
2022-10-26T11:40:16.106Z,100.00
2022-10-26T11:42:50.152Z,100.00
2022-10-26T11:45:26.671Z,100.00
2022-10-26T11:48:06.863Z,100.00
2022-10-26T11:50:39.566Z,100.00
2022-10-26T11:53:21.347Z,100.00
2022-10-26T11:55:54.551Z,100.00
2022-10-26T11:58:33.377Z,100.00
2022-10-26T12:01:11.282Z,99.61
2022-10-26T12:03:47.856Z,99.97
2022-10-26T12:06:20.855Z,99.94
2022-10-26T12:09:07.294Z,99.51
2022-10-26T12:11:38.886Z,99.66
2022-10-26T12:14:27.405Z,95.34
2022-10-26T12:17:20.104Z,88.96
2022-10-26T12:19:50.834Z,96.66
2022-10-26T12:22:20.845Z,100.00
2022-10-26T12:25:08.217Z,96.55
2022-10-26T12:27:39.922Z,94.09
2022-10-26T12:30:32.536Z,89.98
2022-10-26T12:33:22.974Z,94.77
2022-10-26T12:35:52.544Z,96.23
2022-10-26T12:38:24.492Z,93.39
2022-10-26T12:41:18.547Z,90.00
2022-10-26T12:43:48.550Z,92.15
2022-10-26T12:46:17.368Z,86.73
2022-10-26T12:48:49.855Z,92.94
2022-10-26T12:51:39.919Z,92.63
2022-10-26T12:54:35.738Z,88.87
2022-10-26T12:57:48.566Z,88.44
2022-10-26T13:00:22.306Z,92.41
2022-10-26T13:03:27.736Z,88.85
2022-10-26T13:06:14.665Z,88.27
2022-10-26T13:08:48.280Z,85.55
2022-10-26T13:11:32.830Z,86.67
2022-10-26T13:14:04.589Z,84.87
2022-10-26T13:16:34.606Z,85.83
2022-10-26T13:38:53.401Z,85.65
2022-10-26T13:41:48.457Z,87.20
2022-10-26T13:44:44.276Z,84.18
2022-10-26T13:47:23.240Z,80.47
2022-10-26T13:49:54.185Z,76.37
2022-10-26T13:52:46.195Z,77.63
2022-10-26T13:55:24.721Z,74.66
2022-10-26T13:58:06.403Z,77.99
2022-10-26T14:00:33.779Z,81.43
2022-10-26T14:03:12.301Z,84.88
2022-10-26T14:05:45.028Z,80.68
2022-10-26T14:08:17.626Z,82.34
2022-10-26T14:11:02.517Z,82.14
2022-10-26T14:13:31.253Z,83.61
2022-10-26T14:15:58.417Z,81.18
2022-10-26T14:18:27.849Z,82.43
2022-10-26T14:21:03.702Z,82.30
2022-10-26T14:23:44.940Z,81.70
2022-10-26T14:26:24.346Z,83.08
2022-10-26T14:28:55.205Z,83.93
2022-10-26T14:31:31.190Z,82.88
2022-10-26T14:34:01.010Z,83.61
2022-10-26T14:36:36.198Z,86.02
2022-10-26T14:39:08.743Z,86.60
2022-10-26T14:41:36.041Z,87.49
2022-10-26T14:44:04.145Z,88.52
2022-10-26T14:46:34.887Z,88.22
2022-10-26T14:49:02.988Z,90.07
2022-10-26T14:51:34.937Z,90.54
2022-10-26T14:54:03.777Z,91.27
2022-10-26T14:56:36.256Z,91.67
2022-10-26T14:59:26.590Z,92.11
2022-10-26T15:02:19.591Z,92.73
2022-10-26T15:05:16.947Z,95.04
2022-10-26T15:07:44.969Z,94.93
2022-10-26T15:10:46.006Z,99.69
2022-10-26T15:13:33.105Z,100.00
2022-10-26T15:16:17.413Z,100.00
2022-10-26T15:18:47.819Z,100.00
2022-10-26T15:21:33.292Z,100.00
2022-10-26T15:24:01.781Z,99.83
2022-10-26T15:26:29.074Z,100.00
2022-10-26T15:28:55.759Z,100.00
2022-10-26T15:31:31.031Z,100.00
2022-10-26T15:34:00.718Z,100.00
2022-10-26T15:36:33.991Z,100.00
2022-10-26T15:39:01.976Z,100.00
2022-10-26T15:41:41.458Z,100.00
2022-10-26T15:44:16.824Z,100.00
2022-10-26T15:46:46.060Z,100.00
2022-10-26T15:49:21.189Z,100.00
2022-10-26T15:51:50.821Z,100.00
2022-10-26T15:54:28.542Z,100.00
2022-10-26T15:56:57.181Z,100.00
2022-10-26T15:59:26.070Z,100.00
2022-10-26T16:01:54.463Z,100.00
2022-10-26T16:04:21.901Z,100.00
2022-10-26T16:06:49.403Z,100.00
2022-10-26T16:09:20.403Z,100.00
2022-10-26T16:11:47.830Z,100.00
2022-10-26T16:14:15.201Z,100.00
2022-10-26T16:16:44.915Z,100.00
2022-10-26T16:22:05.244Z,100.00
2022-10-26T16:24:32.775Z,100.00
2022-10-26T16:27:03.408Z,100.00
2022-10-26T16:29:32.759Z,100.00
2022-10-26T16:32:01.862Z,100.00
2022-10-26T16:34:29.394Z,100.00
2022-10-26T16:36:57.114Z,100.00
2022-10-26T16:39:23.907Z,100.00
2022-10-26T16:41:51.820Z,100.00
2022-10-26T16:44:18.959Z,100.00
2022-10-26T16:46:49.442Z,100.00
2022-10-26T16:49:18.432Z,100.00
2022-10-26T16:51:46.697Z,100.00
2022-10-26T16:54:14.537Z,100.00
2022-10-26T16:56:47.300Z,100.00
2022-10-26T16:59:18.733Z,100.00
2022-10-26T17:01:48.854Z,100.00
2022-10-26T17:04:15.809Z,100.00
2022-10-26T17:06:42.488Z,100.00
2022-10-26T17:09:08.970Z,100.00
2022-10-26T17:11:35.732Z,100.00
2022-10-26T17:14:02.778Z,100.00
2022-10-26T17:16:29.441Z,100.00
2022-10-26T17:18:56.295Z,100.00
2022-10-26T17:21:35.920Z,100.00
2022-10-26T17:24:07.156Z,100.00
2022-10-26T17:26:35.712Z,100.00
2022-10-26T17:29:03.707Z,100.00
2022-10-26T17:31:31.984Z,100.00
2022-10-26T17:34:01.392Z,100.00
2022-10-26T17:36:29.272Z,100.00
2022-10-26T17:38:58.258Z,100.00
2022-10-26T17:41:26.869Z,100.00
2022-10-26T17:43:54.557Z,100.00
2022-10-26T17:46:24.421Z,100.00
2022-10-26T17:48:58.183Z,100.00
2022-10-26T17:51:26.736Z,100.00
2022-10-26T17:53:53.904Z,100.00
2022-10-26T17:56:31.214Z,100.00
2022-10-26T17:59:09.921Z,100.00
2022-10-26T18:01:37.406Z,100.00
2022-10-26T18:04:04.586Z,100.00
2022-10-26T18:06:31.371Z,100.00
2022-10-26T18:08:58.964Z,100.00
2022-10-26T18:11:27.850Z,100.00
2022-10-26T18:13:55.909Z,100.00
2022-10-26T18:16:24.140Z,100.00
2022-10-26T18:19:00.509Z,100.00
2022-10-26T18:21:32.460Z,100.00
2022-10-26T18:24:00.628Z,100.00
2022-10-26T18:26:30.117Z,100.00
2022-10-26T18:29:01.040Z,100.00
2022-10-26T18:31:30.442Z,100.00
2022-10-26T18:34:00.139Z,100.00
2022-10-26T18:36:28.326Z,100.00
2022-10-26T18:38:59.476Z,100.00
2022-10-26T18:41:28.746Z,100.00
2022-10-26T18:44:01.976Z,100.00
2022-10-26T18:46:33.095Z,100.00
2022-10-26T18:49:00.814Z,100.00
2022-10-26T18:51:32.742Z,100.00
2022-10-26T18:54:01.862Z,100.00
2022-10-26T18:56:29.473Z,100.00
2022-10-26T18:58:59.067Z,100.00
2022-10-26T19:01:29.304Z,100.00
2022-10-26T19:04:05.577Z,100.00
2022-10-26T19:06:37.939Z,100.00
2022-10-26T19:09:06.254Z,100.00
2022-10-26T19:11:37.148Z,100.00
2022-10-26T19:14:04.746Z,100.00
2022-10-26T19:16:45.067Z,100.00
2022-10-26T19:19:14.692Z,100.00
2022-10-26T19:21:41.757Z,100.00
2022-10-26T19:24:16.037Z,100.00
2022-10-26T19:26:43.959Z,100.00
2022-10-26T19:29:17.272Z,100.00
2022-10-26T19:31:46.919Z,100.00
2022-10-26T19:34:17.332Z,100.00
2022-10-26T19:36:46.272Z,100.00
2022-10-26T19:39:15.835Z,100.00
2022-10-26T19:41:44.849Z,100.00
2022-10-26T19:44:12.506Z,100.00
2022-10-26T19:46:39.546Z,100.00
2022-10-26T19:49:07.039Z,100.00
2022-10-26T19:51:35.197Z,100.00
2022-10-26T19:54:04.007Z,100.00
2022-10-26T19:56:36.489Z,100.00
2022-10-26T19:59:04.579Z,100.00
2022-10-26T20:01:31.178Z,100.00
2022-10-26T20:03:57.810Z,100.00
2022-10-26T20:06:24.501Z,100.00
2022-10-26T20:08:51.166Z,100.00
2022-10-26T20:11:19.137Z,100.00
2022-10-26T20:13:47.693Z,100.00
2022-10-26T20:16:16.773Z,100.00
2022-10-26T20:18:47.611Z,100.00
2022-10-26T20:21:17.002Z,100.00
2022-10-26T20:23:45.258Z,100.00
2022-10-26T20:26:18.382Z,100.00
2022-10-26T20:28:51.852Z,100.00
2022-10-26T20:31:20.203Z,100.00
2022-10-26T20:33:52.138Z,100.00
2022-10-26T20:36:20.116Z,100.00
2022-10-26T20:38:47.420Z,100.00
2022-10-26T20:41:14.379Z,100.00
2022-10-26T20:43:42.013Z,100.00
2022-10-26T20:46:26.677Z,100.00
2022-10-26T20:48:54.265Z,100.00
2022-10-26T20:52:02.745Z,100.00
2022-10-26T20:54:41.891Z,100.00
2022-10-26T20:57:14.099Z,100.00
2022-10-26T20:59:46.073Z,100.00
2022-10-26T21:02:12.828Z,100.00
2022-10-26T21:04:39.656Z,100.00
2022-10-26T21:07:06.496Z,100.00
2022-10-26T21:09:36.524Z,100.00
2022-10-26T21:12:03.784Z,100.00
2022-10-26T21:14:30.343Z,100.00
2022-10-26T21:16:56.735Z,100.00
2022-10-26T21:19:23.031Z,100.00
2022-10-26T21:21:50.032Z,100.00
2022-10-26T21:24:16.340Z,100.00
2022-10-26T21:26:42.721Z,100.00
2022-10-26T21:29:09.932Z,100.00
2022-10-26T21:31:36.426Z,100.00
2022-10-26T21:34:04.022Z,100.00
2022-10-26T21:36:30.719Z,100.00
2022-10-26T21:38:57.246Z,100.00
2022-10-26T21:43:59.203Z,100.00
2022-10-26T21:46:37.358Z,100.00
2022-10-26T21:49:04.245Z,100.00
2022-10-26T21:51:30.755Z,100.00
2022-10-26T21:53:57.827Z,100.00
2022-10-26T21:56:24.527Z,100.00
2022-10-26T21:58:51.073Z,100.00
2022-10-26T22:01:20.226Z,100.00
2022-10-26T22:03:48.227Z,100.00
2022-10-26T22:08:49.378Z,100.00
2022-10-26T22:11:22.373Z,100.00
2022-10-26T22:13:52.823Z,100.00
2022-10-26T22:16:25.148Z,100.00
2022-10-26T22:18:53.441Z,100.00
2022-10-26T22:21:21.695Z,100.00
2022-10-26T22:23:50.957Z,100.00
2022-10-26T22:26:20.777Z,100.00
2022-10-26T22:28:49.823Z,100.00
2022-10-26T22:31:21.758Z,100.00
2022-10-26T22:34:02.070Z,100.00
2022-10-26T22:36:32.076Z,100.00
2022-10-26T22:39:01.370Z,100.00
2022-10-26T22:41:27.794Z,100.00
2022-10-26T22:43:54.262Z,100.00
2022-10-26T22:46:25.921Z,100.00
2022-10-26T22:48:54.180Z,100.00
2022-10-26T22:51:23.029Z,100.00
2022-10-26T22:53:54.175Z,100.00
2022-10-26T22:56:22.623Z,100.00
2022-10-26T22:58:51.400Z,100.00
2022-10-26T23:01:22.791Z,100.00
2022-10-26T23:03:49.627Z,100.00
2022-10-26T23:06:18.049Z,100.00
2022-10-26T23:08:45.402Z,100.00
2022-10-26T23:11:15.302Z,100.00
2022-10-26T23:13:42.428Z,100.00
2022-10-26T23:16:13.363Z,100.00
2022-10-26T23:18:40.138Z,100.00
2022-10-26T23:21:08.553Z,100.00
2022-10-26T23:23:35.600Z,100.00
2022-10-26T23:26:08.386Z,100.00
2022-10-26T23:28:35.808Z,100.00
2022-10-26T23:31:02.140Z,100.00
2022-10-26T23:33:28.859Z,100.00
2022-10-26T23:35:55.331Z,100.00
2022-10-26T23:38:21.710Z,100.00
2022-10-26T23:40:53.266Z,100.00
2022-10-26T23:43:20.647Z,100.00
2022-10-26T23:45:47.246Z,100.00
2022-10-26T23:48:13.993Z,100.00
2022-10-26T23:50:44.967Z,100.00
2022-10-26T23:53:12.841Z,100.00
2022-10-26T23:55:39.554Z,100.00
2022-10-26T23:58:06.344Z,100.00
